Time;durP1;ratioP1;P1;durP2;ratioP2;P2;SDS_P1;SDS_P2;PMS_P1;PMS_P2;Temp;Humidity;BMP_temperature;BMP_pressure;BME280_temperature;BME280_humidity;BME280_pressure;Samples;Min_cycle;Max_cycle;Signal;HPM_P1;HPM_P2
2021/10/08 00:01:06;;;;;;;0.30;0.30;;;9.70;99.90;;;;;;5074797;28;20500;-82
2021/10/08 00:03:33;;;;;;;0.67;0.67;;;9.70;99.90;;;;;;5074885;28;20453;-82
2021/10/08 00:05:59;;;;;;;0.40;0.40;;;9.70;99.90;;;;;;5074498;28;20445;-82
2021/10/08 00:08:26;;;;;;;1.80;0.40;;;9.70;99.90;;;;;;5074739;28;20459;-82
2021/10/08 00:10:53;;;;;;;0.40;0.40;;;9.70;99.90;;;;;;5074677;28;20842;-82
2021/10/08 00:13:21;;;;;;;0.50;0.40;;;9.70;99.90;;;;;;5074402;28;20800;-82
2021/10/08 00:15:48;;;;;;;0.90;0.40;;;9.80;99.90;;;;;;5074623;28;20441;-82
2021/10/08 00:18:15;;;;;;;0.40;0.30;;;9.80;99.90;;;;;;5074554;28;20449;-82
2021/10/08 00:20:41;;;;;;;0.30;0.30;;;9.80;99.90;;;;;;5074187;28;20457;-83
2021/10/08 00:23:08;;;;;;;0.40;0.40;;;9.80;99.90;;;;;;5074399;28;20485;-83
2021/10/08 00:25:39;;;;;;;0.70;0.30;;;9.80;99.90;;;;;;5074076;28;20456;-82
2021/10/08 00:28:06;;;;;;;1.23;0.40;;;9.80;99.90;;;;;;5074417;28;20436;-82
2021/10/08 00:30:34;;;;;;;1.13;0.40;;;9.80;99.90;;;;;;5073949;28;20994;-82
2021/10/08 00:33:00;;;;;;;0.70;0.47;;;9.80;99.90;;;;;;5074279;28;20784;-82
2021/10/08 00:35:27;;;;;;;0.50;0.40;;;9.70;99.90;;;;;;5074106;28;20453;-82
2021/10/08 00:37:54;;;;;;;0.50;0.50;;;9.70;99.90;;;;;;5073647;28;20476;-83
2021/10/08 00:40:21;;;;;;;0.80;0.70;;;9.70;99.90;;;;;;5074069;28;20457;-83
2021/10/08 00:42:49;;;;;;;0.40;0.40;;;9.60;99.90;;;;;;5074001;28;20480;-83
2021/10/08 00:45:16;;;;;;;0.40;0.40;;;9.60;99.90;;;;;;5074093;28;20444;-83
2021/10/08 00:47:44;;;;;;;2.60;0.50;;;9.60;99.90;;;;;;5073774;28;20444;-83
2021/10/08 00:50:12;;;;;;;1.53;0.53;;;9.70;99.90;;;;;;5073868;28;20460;-83
2021/10/08 00:52:38;;;;;;;0.47;0.40;;;9.70;99.90;;;;;;5073884;28;20449;-83
2021/10/08 00:55:06;;;;;;;1.13;0.57;;;9.70;99.90;;;;;;5073596;28;20445;-82
2021/10/08 00:57:33;;;;;;;0.60;0.47;;;9.70;99.90;;;;;;5073518;28;20801;-83
2021/10/08 01:00:02;;;;;;;0.40;0.30;;;9.70;99.90;;;;;;5073495;28;20796;-82
2021/10/08 01:02:30;;;;;;;1.17;0.50;;;9.60;99.90;;;;;;5073661;28;20484;-83
2021/10/08 01:04:58;;;;;;;0.97;0.43;;;9.50;99.90;;;;;;5073771;28;20448;-83
2021/10/08 01:07:25;;;;;;;0.40;0.40;;;9.60;99.90;;;;;;5073034;28;20452;-83
2021/10/08 01:09:52;;;;;;;1.37;0.30;;;9.50;99.90;;;;;;5073689;28;20873;-82
2021/10/08 01:12:19;;;;;;;1.37;0.50;;;9.50;99.90;;;;;;5073638;28;20448;-83
2021/10/08 01:14:46;;;;;;;0.77;0.30;;;9.50;99.90;;;;;;5074190;28;20460;-83
2021/10/08 01:17:14;;;;;;;0.40;0.33;;;9.50;99.90;;;;;;5073622;28;20456;-82
2021/10/08 01:19:41;;;;;;;0.83;0.60;;;9.40;99.90;;;;;;5073425;28;20448;-83
2021/10/08 01:22:09;;;;;;;0.80;0.80;;;9.30;99.90;;;;;;5073158;28;20853;-83
2021/10/08 01:24:36;;;;;;;0.50;0.40;;;9.30;99.90;;;;;;5073183;28;20829;-83
2021/10/08 01:27:03;;;;;;;0.40;0.40;;;9.20;99.90;;;;;;5073300;28;20441;-82
2021/10/08 01:29:30;;;;;;;0.63;0.60;;;9.20;99.90;;;;;;5073467;28;20445;-83
2021/10/08 01:31:57;;;;;;;0.30;0.30;;;9.20;99.90;;;;;;5073022;28;21026;-83
2021/10/08 01:34:23;;;;;;;0.70;0.47;;;9.10;99.90;;;;;;5073421;28;20449;-83
2021/10/08 01:36:50;;;;;;;0.80;0.50;;;9.10;99.90;;;;;;5073103;28;20487;-82
2021/10/08 01:39:19;;;;;;;2.10;0.47;;;9.10;99.90;;;;;;5073120;28;20909;-82
2021/10/08 01:41:45;;;;;;;0.40;0.37;;;9.10;99.90;;;;;;5072865;28;20971;-83
2021/10/08 01:44:12;;;;;;;1.20;0.60;;;9.00;99.90;;;;;;5073305;28;20452;-84
2021/10/08 01:46:39;;;;;;;0.63;0.63;;;9.00;99.90;;;;;;5073246;28;20456;-83
2021/10/08 01:49:05;;;;;;;1.33;0.57;;;9.00;99.90;;;;;;5072857;28;20814;-83
2021/10/08 01:51:32;;;;;;;0.40;0.30;;;9.00;99.90;;;;;;5072849;28;20971;-83
2021/10/08 01:53:59;;;;;;;0.80;0.47;;;9.00;99.90;;;;;;5074030;28;20449;-82
2021/10/08 01:56:29;;;;;;;0.30;0.30;;;9.00;99.90;;;;;;5073176;28;20456;-83
2021/10/08 01:58:55;;;;;;;1.27;1.10;;;8.90;99.90;;;;;;5072842;28;20967;-82
2021/10/08 02:01:22;;;;;;;0.40;0.40;;;8.90;99.90;;;;;;5072747;28;20460;-83
2021/10/08 02:03:50;;;;;;;2.00;0.40;;;8.90;99.90;;;;;;5072823;28;20473;-83
2021/10/08 02:06:17;;;;;;;0.53;0.30;;;8.90;99.90;;;;;;5072910;28;20944;-83
2021/10/08 02:08:44;;;;;;;0.40;0.30;;;8.80;99.90;;;;;;5072997;28;20445;-83
2021/10/08 02:11:11;;;;;;;1.07;0.47;;;8.80;99.90;;;;;;5072946;28;20473;-83
2021/10/08 02:13:39;;;;;;;1.13;0.40;;;8.80;99.90;;;;;;5072723;28;20448;-83
2021/10/08 02:16:08;;;;;;;0.40;0.40;;;8.80;99.90;;;;;;5073699;28;20766;-83
2021/10/08 02:18:35;;;;;;;0.40;0.30;;;8.80;99.90;;;;;;5072994;28;20856;-83
2021/10/08 02:21:01;;;;;;;0.67;0.67;;;8.70;99.90;;;;;;5075681;28;20468;-84
2021/10/08 02:23:28;;;;;;;0.77;0.77;;;8.70;99.90;;;;;;5076713;28;20480;-82
2021/10/08 02:25:55;;;;;;;0.43;0.40;;;8.70;99.90;;;;;;5076413;28;20460;-83
2021/10/08 02:28:22;;;;;;;0.50;0.40;;;8.70;99.90;;;;;;5076692;28;20448;-83
2021/10/08 02:30:50;;;;;;;0.40;0.30;;;8.70;99.90;;;;;;5076572;28;20469;-82
2021/10/08 02:33:17;;;;;;;0.83;0.50;;;8.80;99.90;;;;;;5076585;28;20449;-83
2021/10/08 02:35:44;;;;;;;0.67;0.43;;;8.80;99.90;;;;;;5076271;28;20939;-83
2021/10/08 02:38:11;;;;;;;0.50;0.40;;;8.70;99.90;;;;;;5076051;28;20487;-81
2021/10/08 02:40:37;;;;;;;1.47;0.53;;;8.80;99.90;;;;;;5076373;28;20472;-83
2021/10/08 02:43:05;;;;;;;0.50;0.50;;;8.80;99.90;;;;;;5076033;28;21003;-82
2021/10/08 02:45:32;;;;;;;1.07;0.40;;;8.70;99.90;;;;;;5076286;28;20444;-83
2021/10/08 02:48:00;;;;;;;0.50;0.50;;;8.70;99.90;;;;;;5076313;28;20448;-83
2021/10/08 02:50:28;;;;;;;2.37;0.70;;;8.60;99.90;;;;;;5076197;28;20472;-83
2021/10/08 02:52:55;;;;;;;0.50;0.40;;;8.60;99.90;;;;;;5076288;28;20432;-83
2021/10/08 02:55:22;;;;;;;0.50;0.50;;;8.60;99.90;;;;;;5076182;28;20444;-82
2021/10/08 02:57:48;;;;;;;0.73;0.70;;;8.60;99.90;;;;;;5076183;28;20456;-83
2021/10/08 03:00:15;;;;;;;1.13;0.40;;;8.50;99.90;;;;;;5076054;28;20453;-83
2021/10/08 03:02:42;;;;;;;0.40;0.40;;;8.50;99.90;;;;;;5075718;28;21018;-83
2021/10/08 03:05:11;;;;;;;0.80;0.43;;;8.50;99.90;;;;;;5075710;28;20974;-81
2021/10/08 03:07:37;;;;;;;0.60;0.30;;;8.60;99.90;;;;;;5075644;28;20453;-83
2021/10/08 03:10:06;;;;;;;1.03;0.50;;;8.60;99.90;;;;;;5075918;28;20809;-83
2021/10/08 03:12:33;;;;;;;0.40;0.40;;;8.50;99.90;;;;;;5075784;28;20452;-84
2021/10/08 03:15:01;;;;;;;3.20;0.57;;;8.60;99.90;;;;;;5075522;28;20460;-82
2021/10/08 03:17:28;;;;;;;0.50;0.33;;;8.60;99.90;;;;;;5075822;28;20449;-83
2021/10/08 03:19:55;;;;;;;0.63;0.50;;;8.50;99.90;;;;;;5075365;28;20975;-82
2021/10/08 03:22:23;;;;;;;1.23;0.67;;;8.50;99.90;;;;;;5075392;28;20983;-82
2021/10/08 03:24:50;;;;;;;0.40;0.40;;;8.50;99.90;;;;;;5075664;28;20457;-83
2021/10/08 03:27:17;;;;;;;1.27;0.80;;;8.40;99.90;;;;;;5075330;28;20939;-82
2021/10/08 03:29:44;;;;;;;0.60;0.60;;;8.40;99.90;;;;;;5075259;28;20448;-83
2021/10/08 03:32:10;;;;;;;2.10;0.90;;;8.40;99.90;;;;;;5075063;28;20488;-83
2021/10/08 03:34:37;;;;;;;0.40;0.40;;;8.40;99.90;;;;;;5075190;28;20826;-84
2021/10/08 03:37:06;;;;;;;0.97;0.50;;;8.40;99.90;;;;;;5075055;28;20487;-84
2021/10/08 03:39:37;;;;;;;1.07;1.07;;;8.30;99.90;;;;;;5076086;28;20503;-84
2021/10/08 03:42:04;;;;;;;0.40;0.30;;;8.30;99.90;;;;;;5074878;28;20476;-82
2021/10/08 03:44:36;;;;;;;1.53;0.67;;;8.30;99.90;;;;;;5075280;28;20453;-83
2021/10/08 03:47:13;;;;;;;0.83;0.57;;;8.30;99.90;;;;;;5075012;28;20535;-83
2021/10/08 03:49:40;;;;;;;0.40;0.40;;;8.20;99.90;;;;;;5075232;28;20513;-82
2021/10/08 03:52:07;;;;;;;0.80;0.60;;;8.20;99.90;;;;;;5074876;28;20464;-83
2021/10/08 03:54:35;;;;;;;0.60;0.40;;;8.20;99.90;;;;;;5074799;28;20936;-83
2021/10/08 03:57:02;;;;;;;0.90;0.90;;;8.20;99.90;;;;;;5075023;28;20834;-83
2021/10/08 03:59:29;;;;;;;1.20;0.77;;;8.10;99.90;;;;;;5075057;28;20449;-83
2021/10/08 04:01:56;;;;;;;2.13;1.30;;;8.10;99.90;;;;;;5074676;28;20468;-82
2021/10/08 04:04:23;;;;;;;1.83;0.50;;;8.20;99.90;;;;;;5074818;28;20480;-84
2021/10/08 04:06:49;;;;;;;0.40;0.40;;;8.20;99.90;;;;;;5074848;28;20456;-84
2021/10/08 04:09:16;;;;;;;0.70;0.67;;;8.20;99.90;;;;;;5074796;28;20481;-84
2021/10/08 04:11:44;;;;;;;1.90;0.47;;;8.20;99.90;;;;;;5074409;28;20460;-85
2021/10/08 04:14:11;;;;;;;1.57;0.40;;;8.20;99.90;;;;;;5074386;28;20959;-82
2021/10/08 04:16:38;;;;;;;0.40;0.40;;;8.20;99.90;;;;;;5074693;28;20455;-85
2021/10/08 04:19:05;;;;;;;2.37;1.90;;;8.20;99.90;;;;;;5074340;28;20776;-84
2021/10/08 04:21:32;;;;;;;0.83;0.40;;;8.20;99.90;;;;;;5074327;28;20473;-82
2021/10/08 04:23:59;;;;;;;1.60;0.50;;;8.20;99.90;;;;;;5074171;28;20473;-83
2021/10/08 04:26:26;;;;;;;0.87;0.70;;;8.20;99.90;;;;;;5074138;28;20456;-81
2021/10/08 04:28:54;;;;;;;0.97;0.30;;;8.20;99.90;;;;;;5074075;28;20448;-82
2021/10/08 04:31:20;;;;;;;0.60;0.47;;;8.20;99.90;;;;;;5074299;28;20472;-84
2021/10/08 04:33:47;;;;;;;1.47;0.67;;;8.20;99.90;;;;;;5074302;28;20471;-83
2021/10/08 04:36:14;;;;;;;0.60;0.40;;;8.20;99.90;;;;;;5073927;28;20460;-81
2021/10/08 04:38:41;;;;;;;1.23;0.60;;;8.30;99.90;;;;;;5073655;28;20485;-81
2021/10/08 04:41:08;;;;;;;1.43;1.43;;;8.30;99.90;;;;;;5074057;28;20472;-85
2021/10/08 04:43:34;;;;;;;1.60;0.77;;;8.20;99.90;;;;;;5072935;28;21026;-85
2021/10/08 04:46:02;;;;;;;0.40;0.40;;;8.20;99.90;;;;;;5074040;28;20445;-84
2021/10/08 04:48:29;;;;;;;1.83;0.73;;;8.20;99.90;;;;;;5074102;28;20452;-85
2021/10/08 04:50:56;;;;;;;0.40;0.40;;;8.10;99.90;;;;;;5074124;28;20465;-85
2021/10/08 04:53:25;;;;;;;0.70;0.70;;;8.10;99.90;;;;;;5074833;28;20798;-84
2021/10/08 04:55:52;;;;;;;0.30;0.30;;;8.10;99.90;;;;;;5074220;28;20502;-84
2021/10/08 04:58:19;;;;;;;1.17;0.80;;;8.10;99.90;;;;;;5074291;28;20452;-83
2021/10/08 05:00:47;;;;;;;0.30;0.30;;;8.10;99.90;;;;;;5074207;28;20488;-83
2021/10/08 05:03:17;;;;;;;0.60;0.60;;;8.00;99.90;;;;;;5074642;28;20485;-83
2021/10/08 05:05:47;;;;;;;1.13;1.03;;;8.00;99.90;;;;;;5073539;28;20416;-84
2021/10/08 05:08:14;;;;;;;3.03;1.30;;;8.00;99.90;;;;;;5073440;28;20437;-84
2021/10/08 05:10:41;;;;;;;0.60;0.60;;;8.00;99.90;;;;;;5073595;28;20453;-84
2021/10/08 05:13:08;;;;;;;0.50;0.50;;;7.90;99.90;;;;;;5073660;28;20445;-83
2021/10/08 05:15:34;;;;;;;0.30;0.30;;;7.90;99.90;;;;;;5073644;28;20448;-85
2021/10/08 05:18:01;;;;;;;0.40;0.30;;;7.90;99.90;;;;;;5073704;28;20806;-82
2021/10/08 05:20:30;;;;;;;1.30;0.53;;;7.90;99.90;;;;;;5073241;28;20527;-83
2021/10/08 05:22:56;;;;;;;0.40;0.37;;;7.90;99.90;;;;;;5073175;28;21022;-83
2021/10/08 05:25:23;;;;;;;2.20;0.90;;;7.90;99.90;;;;;;5073522;28;20523;-84
2021/10/08 05:27:50;;;;;;;0.80;0.37;;;7.80;99.90;;;;;;5073222;28;20439;-83
2021/10/08 05:30:17;;;;;;;0.50;0.50;;;7.80;99.90;;;;;;5073355;28;20465;-83
2021/10/08 05:32:44;;;;;;;0.40;0.40;;;7.80;99.90;;;;;;5073081;28;20818;-84
2021/10/08 05:35:12;;;;;;;0.73;0.67;;;7.80;99.90;;;;;;5073334;28;20449;-83
2021/10/08 05:37:40;;;;;;;1.57;0.40;;;7.80;99.90;;;;;;5073020;28;20485;-83
2021/10/08 05:40:08;;;;;;;0.53;0.40;;;7.80;99.90;;;;;;5072997;28;20452;-83
2021/10/08 05:42:34;;;;;;;0.50;0.50;;;7.80;99.90;;;;;;5073894;28;20449;-85
2021/10/08 05:45:02;;;;;;;0.73;0.57;;;7.90;99.90;;;;;;5073288;28;20483;-84
2021/10/08 05:47:28;;;;;;;1.03;0.93;;;7.80;99.90;;;;;;5073280;28;20448;-84
2021/10/08 05:49:55;;;;;;;0.60;0.40;;;7.80;99.90;;;;;;5072930;28;20437;-84
2021/10/08 05:52:22;;;;;;;1.83;0.73;;;7.80;99.90;;;;;;5073225;28;20475;-85
2021/10/08 05:54:50;;;;;;;0.97;0.97;;;7.80;99.90;;;;;;5075632;28;20444;-81
2021/10/08 05:57:17;;;;;;;0.63;0.37;;;7.80;99.90;;;;;;5076968;28;20948;-82
2021/10/08 05:59:44;;;;;;;1.00;0.53;;;7.70;99.90;;;;;;5077245;28;20449;-83
2021/10/08 06:02:11;;;;;;;0.40;0.33;;;7.80;99.90;;;;;;5077173;28;20476;-84
2021/10/08 06:04:38;;;;;;;0.67;0.67;;;7.80;99.90;;;;;;5077081;28;20483;-84
2021/10/08 06:07:06;;;;;;;0.50;0.40;;;7.80;99.90;;;;;;5076811;28;20958;-83
2021/10/08 06:09:34;;;;;;;0.40;0.30;;;7.80;99.90;;;;;;5076725;28;20464;-82
2021/10/08 06:12:02;;;;;;;0.40;0.30;;;7.80;99.90;;;;;;5076664;28;20998;-83
2021/10/08 06:14:29;;;;;;;0.60;0.60;;;7.80;99.90;;;;;;5077088;28;20437;-82
2021/10/08 06:16:55;;;;;;;0.37;0.37;;;7.80;99.90;;;;;;5077041;28;20452;-81
2021/10/08 06:19:22;;;;;;;0.60;0.50;;;7.90;99.90;;;;;;5076881;28;20455;-83
2021/10/08 06:21:49;;;;;;;0.70;0.40;;;7.90;99.90;;;;;;5076786;28;20471;-84
2021/10/08 06:24:16;;;;;;;1.90;1.03;;;7.90;99.90;;;;;;5076794;28;20483;-84
2021/10/08 06:26:42;;;;;;;0.60;0.60;;;7.90;99.90;;;;;;5076981;28;20821;-84
2021/10/08 06:29:11;;;;;;;0.50;0.40;;;7.90;99.90;;;;;;5076687;28;20456;-83
2021/10/08 06:31:37;;;;;;;0.70;0.70;;;8.00;99.90;;;;;;5076569;28;20480;-83
2021/10/08 06:34:05;;;;;;;1.53;1.53;;;8.00;99.90;;;;;;5076620;28;20448;-82
2021/10/08 06:36:32;;;;;;;0.60;0.60;;;8.00;99.90;;;;;;5076470;28;20793;-82
2021/10/08 06:38:59;;;;;;;0.80;0.80;;;8.10;99.90;;;;;;5076309;28;20417;-82
2021/10/08 06:41:26;;;;;;;1.17;0.50;;;8.10;99.90;;;;;;5076403;28;20475;-84
2021/10/08 06:43:52;;;;;;;0.93;0.93;;;8.20;99.90;;;;;;5076425;28;20818;-83
2021/10/08 06:46:21;;;;;;;1.67;0.57;;;8.20;99.90;;;;;;5076984;28;20495;-83
2021/10/08 06:48:48;;;;;;;0.50;0.43;;;8.30;99.90;;;;;;5076062;28;20433;-82
2021/10/08 06:51:15;;;;;;;0.70;0.70;;;8.30;99.90;;;;;;5076252;28;20472;-83
2021/10/08 06:53:41;;;;;;;0.83;0.60;;;8.40;99.90;;;;;;5076302;28;20425;-83
2021/10/08 06:56:08;;;;;;;2.30;0.70;;;8.40;99.90;;;;;;5076214;28;20433;-82
2021/10/08 06:58:37;;;;;;;0.67;0.67;;;8.40;99.90;;;;;;5076253;28;20437;-82
2021/10/08 07:01:08;;;;;;;0.30;0.30;;;8.50;99.90;;;;;;5076229;28;20497;-84
2021/10/08 07:03:41;;;;;;;0.50;0.50;;;8.60;99.90;;;;;;5075562;28;20483;-83
2021/10/08 07:06:14;;;;;;;1.83;0.57;;;8.60;99.90;;;;;;5075619;28;20428;-83
2021/10/08 07:08:43;;;;;;;0.80;0.80;;;8.70;99.90;;;;;;5075803;28;20473;-83
2021/10/08 07:11:15;;;;;;;2.03;0.67;;;8.70;99.90;;;;;;5075767;28;20473;-83
2021/10/08 07:13:42;;;;;;;2.00;0.60;;;8.80;99.90;;;;;;5074947;28;20455;-83
2021/10/08 07:16:09;;;;;;;1.70;1.53;;;8.80;99.90;;;;;;5075108;28;20939;-82
2021/10/08 07:18:38;;;;;;;1.33;0.70;;;8.90;99.90;;;;;;5075331;28;20479;-82
2021/10/08 07:21:06;;;;;;;1.70;1.60;;;9.00;99.90;;;;;;5075664;28;20543;-83
2021/10/08 07:23:34;;;;;;;3.23;1.80;;;9.10;99.90;;;;;;5075602;28;20520;-82
2021/10/08 07:26:01;;;;;;;1.07;0.50;;;9.20;99.90;;;;;;5075692;28;20456;-82
2021/10/08 07:28:27;;;;;;;0.60;0.50;;;9.20;99.90;;;;;;5075612;28;20536;-82
2021/10/08 07:30:54;;;;;;;1.03;0.60;;;9.30;99.90;;;;;;5075210;28;20979;-80
2021/10/08 07:33:21;;;;;;;1.97;0.80;;;9.40;99.90;;;;;;5075492;28;20451;-81
2021/10/08 07:35:49;;;;;;;7.33;0.97;;;9.50;99.90;;;;;;5075488;28;20475;-82
2021/10/08 07:38:16;;;;;;;2.73;0.87;;;9.60;99.90;;;;;;5075036;28;20476;-82
2021/10/08 07:40:42;;;;;;;2.27;1.03;;;9.70;99.90;;;;;;5075308;28;20473;-82
2021/10/08 07:43:09;;;;;;;1.13;1.13;;;9.90;99.90;;;;;;5075296;28;20445;-82
2021/10/08 07:45:36;;;;;;;2.20;0.90;;;10.10;99.90;;;;;;5074425;28;20829;-82
2021/10/08 07:48:03;;;;;;;1.60;1.50;;;10.10;99.90;;;;;;5075237;28;20448;-82
2021/10/08 07:50:30;;;;;;;0.97;0.60;;;10.30;99.90;;;;;;5075040;28;20473;-82
2021/10/08 07:52:58;;;;;;;2.27;1.03;;;10.50;99.90;;;;;;5075163;28;20437;-81
2021/10/08 07:55:25;;;;;;;4.93;1.10;;;10.60;99.90;;;;;;5074740;28;20441;-81
2021/10/08 07:57:51;;;;;;;2.73;0.70;;;10.70;99.90;;;;;;5074744;28;20990;-81
2021/10/08 08:00:18;;;;;;;0.87;0.50;;;10.80;99.90;;;;;;5074910;28;20465;-83
2021/10/08 08:02:45;;;;;;;1.70;0.90;;;11.00;99.90;;;;;;5074940;28;20451;-83
2021/10/08 08:05:12;;;;;;;0.70;0.63;;;11.20;99.90;;;;;;5074497;28;20476;-83
2021/10/08 08:07:39;;;;;;;9.70;0.90;;;11.40;99.90;;;;;;5074543;28;20511;-82
2021/10/08 08:10:09;;;;;;;1.30;0.70;;;11.60;99.90;;;;;;5074439;28;20445;-81
2021/10/08 08:12:36;;;;;;;1.50;1.00;;;11.70;99.90;;;;;;5074384;28;20967;-79
2021/10/08 08:15:04;;;;;;;0.70;0.60;;;12.00;99.90;;;;;;5074382;28;20437;-79
2021/10/08 08:17:30;;;;;;;4.43;1.10;;;12.10;99.90;;;;;;5073646;28;20425;-80
2021/10/08 08:19:57;;;;;;;1.30;0.70;;;12.30;99.90;;;;;;5074481;28;20440;-78
2021/10/08 08:22:24;;;;;;;1.33;0.50;;;12.40;99.90;;;;;;5074554;28;20433;-79
2021/10/08 08:24:51;;;;;;;3.43;0.80;;;12.60;99.90;;;;;;5074466;28;20464;-80
2021/10/08 08:27:19;;;;;;;1.53;1.03;;;12.70;99.90;;;;;;5074442;28;20440;-78
2021/10/08 08:29:46;;;;;;;1.03;0.77;;;12.90;99.90;;;;;;5074072;28;20805;-78
2021/10/08 08:32:15;;;;;;;0.80;0.80;;;13.00;99.90;;;;;;5073917;28;20998;-79
2021/10/08 08:34:42;;;;;;;0.70;0.70;;;13.10;99.90;;;;;;5074313;28;20771;-83
2021/10/08 08:37:09;;;;;;;1.50;1.40;;;13.30;99.90;;;;;;5074009;28;20468;-79
2021/10/08 08:39:38;;;;;;;1.73;0.63;;;13.50;99.90;;;;;;5074220;28;20460;-83
2021/10/08 08:42:05;;;;;;;0.83;0.83;;;13.60;99.90;;;;;;5074172;28;20497;-78
2021/10/08 08:44:34;;;;;;;5.43;1.17;;;13.70;99.90;;;;;;5074073;28;20476;-80
2021/10/08 08:47:00;;;;;;;1.17;0.70;;;13.70;99.90;;;;;;5074032;28;20441;-79
2021/10/08 08:49:27;;;;;;;1.00;0.70;;;13.70;99.90;;;;;;5073985;28;20904;-79
2021/10/08 08:51:54;;;;;;;4.43;0.83;;;13.60;99.90;;;;;;5073612;28;20825;-80
2021/10/08 08:54:22;;;;;;;1.43;0.97;;;13.60;99.90;;;;;;5073928;28;20429;-81
2021/10/08 08:56:49;;;;;;;0.63;0.63;;;13.70;99.90;;;;;;5073922;28;20436;-82
2021/10/08 08:59:15;;;;;;;1.20;0.60;;;14.30;99.90;;;;;;5073875;28;20436;-80
2021/10/08 09:02:02;;;;;;;0.83;0.67;;;14.90;99.90;;;;;;5073615;28;20909;-81
2021/10/08 09:04:30;;;;;;;1.17;0.83;;;15.40;99.90;;;;;;5073731;28;20507;-84
2021/10/08 09:06:57;;;;;;;1.33;1.23;;;15.70;99.90;;;;;;5073728;28;20445;-82
2021/10/08 09:09:26;;;;;;;2.83;1.07;;;15.90;99.90;;;;;;5073696;28;20440;-85
2021/10/08 09:11:55;;;;;;;0.70;0.60;;;15.90;99.90;;;;;;5073667;28;20476;-83
2021/10/08 09:14:25;;;;;;;1.63;0.87;;;15.80;99.90;;;;;;5073324;28;20981;-83
2021/10/08 09:17:14;;;;;;;0.80;0.70;;;15.80;99.90;;;;;;5073611;28;20429;-82
2021/10/08 09:19:53;;;;;;;0.70;0.70;;;15.80;99.90;;;;;;5073806;28;20429;-84
2021/10/08 09:22:22;;;;;;;0.60;0.60;;;15.80;99.90;;;;;;5073595;28;20452;-82
2021/10/08 09:24:49;;;;;;;2.10;1.43;;;15.80;99.90;;;;;;5073517;28;20473;-86
2021/10/08 09:27:19;;;;;;;1.37;0.60;;;15.70;99.90;;;;;;5073586;28;20874;-84
2021/10/08 09:29:51;;;;;;;1.13;1.13;;;15.60;99.90;;;;;;5073216;28;20491;-83
2021/10/08 09:32:20;;;;;;;1.83;1.10;;;15.20;99.90;;;;;;5073364;28;20468;-84
2021/10/08 09:34:48;;;;;;;2.40;1.13;;;14.90;99.90;;;;;;5073156;28;20951;-82
2021/10/08 09:37:17;;;;;;;1.10;1.00;;;14.70;99.90;;;;;;5072900;28;20991;-82
2021/10/08 09:39:50;;;;;;;2.53;0.57;;;14.50;99.90;;;;;;5073277;28;20447;-83
2021/10/08 09:42:19;;;;;;;1.80;0.97;;;14.30;99.90;;;;;;5072922;28;21045;-84
2021/10/08 09:44:49;;;;;;;1.20;0.97;;;14.20;99.90;;;;;;5073222;28;20504;-84
2021/10/08 09:47:17;;;;;;;0.60;0.60;;;14.00;99.90;;;;;;5073377;28;20417;-84
2021/10/08 09:49:48;;;;;;;0.70;0.70;;;13.90;99.90;;;;;;5073324;28;20429;-83
2021/10/08 09:52:28;;;;;;;0.93;0.73;;;13.80;99.90;;;;;;5072968;28;20456;-83
2021/10/08 09:54:57;;;;;;;3.23;0.77;;;13.80;99.90;;;;;;5073297;28;20418;-85
2021/10/08 09:57:24;;;;;;;1.70;0.80;;;13.70;99.90;;;;;;5072962;28;20924;-79
2021/10/08 09:59:52;;;;;;;1.30;1.20;;;13.60;99.90;;;;;;5073635;28;20467;-80
2021/10/08 10:02:21;;;;;;;0.73;0.70;;;13.60;99.90;;;;;;5072863;28;20453;-81
2021/10/08 10:04:51;;;;;;;2.10;0.70;;;13.60;99.90;;;;;;5072947;28;20468;-79
2021/10/08 10:07:19;;;;;;;1.40;0.90;;;13.50;99.90;;;;;;5072958;28;20429;-80
2021/10/08 10:09:47;;;;;;;6.73;0.97;;;13.50;99.90;;;;;;5073146;28;20436;-78
2021/10/08 10:12:15;;;;;;;1.70;1.03;;;13.50;99.90;;;;;;5072886;28;20475;-81
2021/10/08 10:14:45;;;;;;;2.37;1.87;;;13.40;99.90;;;;;;5073055;28;20425;-79
2021/10/08 10:17:14;;;;;;;1.07;0.73;;;13.40;99.90;;;;;;5073066;28;20491;-82
2021/10/08 10:19:43;;;;;;;1.87;0.80;;;13.30;99.90;;;;;;5072714;28;20418;-83
2021/10/08 10:22:14;;;;;;;1.00;0.63;;;13.30;99.90;;;;;;5072907;28;20469;-81
2021/10/08 10:24:42;;;;;;;0.77;0.77;;;13.30;99.90;;;;;;5072880;28;20492;-83
2021/10/08 10:27:10;;;;;;;1.33;0.87;;;13.40;99.90;;;;;;5073000;28;20463;-81
2021/10/08 10:29:38;;;;;;;1.83;0.80;;;13.40;99.90;;;;;;5072881;28;20440;-83
2021/10/08 10:32:06;;;;;;;1.70;1.20;;;13.50;99.90;;;;;;5072842;28;20464;-84
2021/10/08 10:34:35;;;;;;;1.83;0.60;;;13.40;99.90;;;;;;5072433;28;20509;-82
2021/10/08 10:37:02;;;;;;;2.60;1.30;;;13.40;99.90;;;;;;5072928;28;20472;-80
2021/10/08 10:39:31;;;;;;;1.23;0.93;;;13.50;99.90;;;;;;5072614;28;20452;-82
2021/10/08 10:42:17;;;;;;;2.03;1.00;;;13.60;99.90;;;;;;5075289;28;20468;-82
2021/10/08 10:45:13;;;;;;;1.47;1.27;;;13.70;99.90;;;;;;5076362;28;20460;-82
2021/10/08 10:47:42;;;;;;;1.30;1.20;;;13.90;99.90;;;;;;5076379;28;20526;-82
2021/10/08 10:50:13;;;;;;;2.07;0.77;;;14.00;99.90;;;;;;5076731;28;20849;-83
2021/10/08 10:52:49;;;;;;;1.40;1.23;;;14.00;99.90;;;;;;5076299;28;20482;-82
2021/10/08 10:55:19;;;;;;;1.37;0.70;;;14.10;99.90;;;;;;5076254;28;20425;-82
2021/10/08 10:57:58;;;;;;;1.73;1.13;;;14.00;99.90;;;;;;5075870;28;20926;-82
2021/10/08 11:00:44;;;;;;;3.13;1.20;;;14.10;99.90;;;;;;5076497;28;20492;-79
2021/10/08 11:03:17;;;;;;;0.60;0.50;;;14.10;99.90;;;;;;5076166;28;20433;-79
2021/10/08 11:06:14;;;;;;;2.80;1.17;;;14.10;99.90;;;;;;5076029;28;20504;-79
2021/10/08 11:09:26;;;;;;;0.87;0.87;;;14.10;99.90;;;;;;5075968;28;20441;-81
2021/10/08 11:12:34;;;;;;;2.13;0.90;;;14.10;99.90;;;;;;5060479;28;20835;-81
2021/10/08 11:15:35;;;;;;;4.90;1.40;;;14.00;99.90;;;;;;5075672;28;20909;-78
2021/10/08 11:18:02;;;;;;;2.10;0.97;;;14.10;99.90;;;;;;5075849;28;20452;-79
2021/10/08 11:20:47;;;;;;;2.50;0.93;;;14.00;99.90;;;;;;5076080;28;20579;-79
2021/10/08 11:23:26;;;;;;;1.20;1.00;;;14.00;99.90;;;;;;5075738;28;20516;-79
2021/10/08 11:25:55;;;;;;;2.73;0.70;;;14.00;99.90;;;;;;5075684;28;20469;-78
2021/10/08 11:28:28;;;;;;;1.70;1.47;;;14.00;99.90;;;;;;5075713;28;20630;-77
2021/10/08 11:30:56;;;;;;;3.07;1.43;;;14.00;99.90;;;;;;5075601;28;20468;-77
2021/10/08 11:33:38;;;;;;;0.80;0.80;;;14.00;99.90;;;;;;5075441;28;20440;-80
2021/10/08 11:36:13;;;;;;;0.90;0.77;;;14.00;99.90;;;;;;5075688;28;20425;-78
2021/10/08 11:38:39;;;;;;;0.87;0.80;;;14.00;99.90;;;;;;5074899;28;20498;-81
2021/10/08 11:41:15;;;;;;;0.70;0.70;;;14.00;99.90;;;;;;5075681;28;20803;-78
2021/10/08 11:43:45;;;;;;;1.07;1.07;;;13.90;99.90;;;;;;5075265;28;20436;-80
2021/10/08 11:46:20;;;;;;;0.97;0.90;;;13.90;99.90;;;;;;5075212;28;20465;-79
2021/10/08 11:48:51;;;;;;;3.23;0.97;;;14.00;99.90;;;;;;5075257;28;20431;-79
2021/10/08 11:51:18;;;;;;;1.67;1.10;;;14.00;99.90;;;;;;5074965;28;20465;-82
2021/10/08 11:53:47;;;;;;;1.43;0.90;;;14.00;99.90;;;;;;5075138;28;20436;-78
2021/10/08 11:56:24;;;;;;;1.57;1.27;;;13.90;99.90;;;;;;5075113;28;20432;-77
2021/10/08 11:58:52;;;;;;;1.90;0.70;;;13.90;99.90;;;;;;5074785;28;20429;-78
2021/10/08 12:01:22;;;;;;;1.30;1.00;;;13.90;99.90;;;;;;5074685;28;20995;-79
2021/10/08 12:03:49;;;;;;;4.27;1.13;;;13.90;99.90;;;;;;5074713;28;20409;-78
2021/10/08 12:06:24;;;;;;;1.83;1.30;;;13.90;99.90;;;;;;5074842;28;20575;-80
2021/10/08 12:08:51;;;;;;;0.73;0.73;;;13.80;99.90;;;;;;5074912;28;20448;-77
2021/10/08 12:11:19;;;;;;;2.23;0.93;;;13.80;99.90;;;;;;5074725;28;20461;-78
2021/10/08 12:13:50;;;;;;;1.90;1.80;;;13.70;99.90;;;;;;5074465;28;20440;-77
2021/10/08 12:16:20;;;;;;;2.13;0.63;;;13.70;99.90;;;;;;5074740;28;20433;-77
2021/10/08 12:18:52;;;;;;;1.37;1.10;;;13.70;99.90;;;;;;5074645;28;20441;-79
2021/10/08 12:21:21;;;;;;;0.50;0.50;;;13.70;99.90;;;;;;5074431;28;20449;-78
2021/10/08 12:23:56;;;;;;;2.23;2.13;;;13.90;99.90;;;;;;5074583;28;20433;-80
2021/10/08 12:26:24;;;;;;;0.90;0.60;;;14.10;99.90;;;;;;5074443;28;20464;-79
2021/10/08 12:28:51;;;;;;;0.90;0.60;;;14.10;99.90;;;;;;5074439;28;20438;-80
2021/10/08 12:31:21;;;;;;;1.23;1.13;;;14.10;99.90;;;;;;5074369;28;20522;-79
2021/10/08 12:33:48;;;;;;;2.20;1.53;;;14.20;99.90;;;;;;5074464;28;20421;-78
2021/10/08 12:36:22;;;;;;;0.60;0.60;;;14.20;99.90;;;;;;5074344;28;20447;-77
2021/10/08 12:39:08;;;;;;;2.93;1.10;;;14.20;99.90;;;;;;5074278;28;20484;-77
2021/10/08 12:41:42;;;;;;;3.63;1.30;;;14.20;99.90;;;;;;5074157;28;20477;-77
2021/10/08 12:44:14;;;;;;;1.43;1.07;;;14.30;99.90;;;;;;5073877;28;20908;-77
2021/10/08 12:46:45;;;;;;;1.27;1.17;;;14.20;99.90;;;;;;5074109;28;20526;-76
2021/10/08 12:49:13;;;;;;;1.93;1.80;;;14.20;99.90;;;;;;5074101;28;20433;-78
2021/10/08 12:51:48;;;;;;;2.30;1.17;;;14.20;99.90;;;;;;5073658;28;20468;-77
2021/10/08 12:54:18;;;;;;;1.47;0.90;;;14.10;99.90;;;;;;5074341;28;20421;-80
2021/10/08 12:56:45;;;;;;;2.43;0.97;;;14.10;99.90;;;;;;5073655;28;20905;-78
2021/10/08 12:59:12;;;;;;;1.23;0.73;;;14.10;99.90;;;;;;5074428;28;20456;-77
2021/10/08 13:01:55;;;;;;;0.93;0.70;;;14.10;99.90;;;;;;5073813;28;20475;-78